Terminal Aerodrome Forecast
Issued by NWS

Current Version | Previous Version | Text Only | Print | Product List | Glossary Off
Versions: 1 2 3 4 5 6 7 8 9 10 11 12

115
FTUS42 KILM 161720
TAFCRE
TAF
KCRE 161720Z 1618/1718 28010G16KT P6SM SKC
     FM162300 VRB03KT P6SM SKC
     FM171200 12005KT P6SM SKC=

USA.gov is the U.S. government's official web portal to all federal, state and local government web resources and services.